METAR Data
IDs: Format: Raw Decoded Include TAF

Data at: 1036 UTC 18 Jan 2022

KOWX 181015Z AUTO 24008KT 10SM OVC028 M02/M07 A3003 RMK AO1